createdAt,value
2023-03-16T00:00:32.958Z,10.01
2023-03-16T00:15:35.607Z,9.86
2023-03-16T00:30:37.459Z,9.71
2023-03-16T00:45:39.700Z,9.63
2023-03-16T01:00:41.609Z,9.64
2023-03-16T01:15:46.205Z,9.62
2023-03-16T01:30:48.279Z,9.55
2023-03-16T01:45:59.170Z,9.38
2023-03-16T02:01:01.710Z,9.20
2023-03-16T02:16:08.958Z,9.16
2023-03-16T02:31:15.731Z,9.22
2023-03-16T02:46:20.856Z,9.32
2023-03-16T03:01:22.730Z,9.43
2023-03-16T03:16:25.294Z,9.44
2023-03-16T03:31:27.294Z,9.31
2023-03-16T03:46:30.540Z,9.12
2023-03-16T04:01:32.512Z,9.07
2023-03-16T04:16:34.471Z,9.23
2023-03-16T04:31:36.306Z,9.23
2023-03-16T04:46:39.064Z,9.01
2023-03-16T05:01:41.004Z,9.16
2023-03-16T05:16:42.858Z,9.36
2023-03-16T05:31:47.731Z,9.50
2023-03-16T05:46:49.958Z,9.60
2023-03-16T06:01:51.862Z,9.97
2023-03-16T06:16:53.730Z,9.90
2023-03-16T06:31:55.873Z,9.89
2023-03-16T06:46:58.957Z,9.87
2023-03-16T07:02:02.142Z,10.05
2023-03-16T07:17:05.298Z,10.05
2023-03-16T07:32:07.272Z,10.11
2023-03-16T07:47:13.178Z,9.87
2023-03-16T08:02:16.136Z,9.96
2023-03-16T08:17:18.097Z,10.07
2023-03-16T08:32:20.575Z,10.27
2023-03-16T08:47:23.677Z,10.45
2023-03-16T09:02:25.962Z,10.76
2023-03-16T09:17:28.816Z,11.38
2023-03-16T09:32:32.598Z,11.62
2023-03-16T09:47:37.316Z,12.35
2023-03-16T10:02:51.126Z,12.73
2023-03-16T10:17:53.371Z,12.74
2023-03-16T10:33:29.521Z,13.10
2023-03-16T10:48:35.544Z,12.85
2023-03-16T11:03:42.041Z,12.70
2023-03-16T11:18:54.325Z,12.73
2023-03-16T11:33:57.687Z,12.85
2023-03-16T11:49:26.733Z,12.77
2023-03-16T12:04:53.273Z,13.26
2023-03-16T12:20:07.339Z,13.14
2023-03-16T12:35:54.390Z,12.83
2023-03-16T12:51:02.202Z,12.80
2023-03-16T13:06:04.693Z,12.83
2023-03-16T13:21:34.669Z,12.81
2023-03-16T13:36:37.990Z,12.81
2023-03-16T13:51:40.206Z,12.83
2023-03-16T14:06:56.408Z,12.64
2023-03-16T14:22:04.250Z,12.69
2023-03-16T14:37:14.972Z,12.66
2023-03-16T14:52:17.307Z,12.74
2023-03-16T15:07:25.316Z,12.69
2023-03-16T15:22:30.948Z,12.57
2023-03-16T15:37:33.428Z,12.41
2023-03-16T15:52:38.141Z,12.38
2023-03-16T16:07:39.899Z,12.29
2023-03-16T16:22:52.087Z,12.14
2023-03-16T16:37:55.076Z,12.06
2023-03-16T16:52:57.681Z,12.03
2023-03-16T17:08:04.260Z,12.02
2023-03-16T17:23:42.834Z,11.94
2023-03-16T17:38:44.854Z,12.08
2023-03-16T17:53:48.081Z,11.98
2023-03-16T18:09:03.107Z,11.98
2023-03-16T18:24:14.454Z,11.78
2023-03-16T18:39:20.595Z,11.74
2023-03-16T18:54:24.784Z,11.62
2023-03-16T19:09:31.781Z,11.53
2023-03-16T19:24:46.423Z,11.44
2023-03-16T19:39:50.425Z,11.30
2023-03-16T19:54:52.424Z,11.37
2023-03-16T20:09:54.376Z,11.34
2023-03-16T20:24:58.177Z,11.17
2023-03-16T20:40:01.654Z,11.21
2023-03-16T20:55:05.697Z,11.14
2023-03-16T21:10:08.909Z,11.10
2023-03-16T21:25:31.373Z,11.06
2023-03-16T21:40:33.505Z,10.94
2023-03-16T21:55:36.234Z,10.87
2023-03-16T22:10:38.133Z,10.89
2023-03-16T22:25:40.421Z,10.87
2023-03-16T22:40:43.284Z,10.92
2023-03-16T22:55:46.091Z,10.86
2023-03-16T23:10:49.282Z,10.88
2023-03-16T23:25:51.116Z,10.82
2023-03-16T23:40:53.017Z,10.87
2023-03-16T23:55:55.449Z,10.77
